WetterOnline ( https://www.wetteronline.ch )

Wetter aktuell Hohenpeißenberg

Aktuelles Wetter: Hohenpeißenberg (986m)

6-stündlich | Neueste Meldungen
Ortszeit Temperatur Wetter
Mo, 27.09. 20:00 15.6° C bewölkt
Mo, 27.09. 14:00 18.0° C fast wolkenlos
Mo, 27.09. 8:00 13.8° C bewölkt
Mo, 27.09. 2:00 11.4° C Sprühregen
So, 26.09. 20:00 14.2° C Regen
So, 26.09. 14:00 18.7° C bewölkt
So, 26.09. 8:00 16.5° C bewölkt
So, 26.09. 2:00 15.6° C bewölkt
Ortszeit Temperatur Wetter
Di, 28.09. 1:00 13.9° C bedeckt
Di, 28.09. 0:50 13.9° C bedeckt
Di, 28.09. 0:40 13.8° C bedeckt
Di, 28.09. 0:30 14.1° C bedeckt
Di, 28.09. 0:20 14.1° C bedeckt
Di, 28.09. 0:10 14.1° C bedeckt
Di, 28.09. 0:00 14.2° C bedeckt
Mo, 27.09. 23:30 14.3° C bedeckt
Mo, 27.09. 23:00 14.5° C bewölkt
Mo, 27.09. 22:30 14.5° C bedeckt
Mo, 27.09. 22:00 14.3° C bedeckt
Ortszeit Relative Feuchte Sichtweite
Mo, 27.09. 20:00 75% 40 km
Mo, 27.09. 14:00 64% 50 km
Mo, 27.09. 8:00 75% 50 km
Mo, 27.09. 2:00 99% 4.9 km
So, 26.09. 20:00 99% 4.8 km
So, 26.09. 14:00 76% 40 km
So, 26.09. 8:00 69% 60 km
So, 26.09. 2:00 81% 50 km
Ortszeit Relative Feuchte Sichtweite
Di, 28.09. 1:00 79% 45 km
Di, 28.09. 0:50 79% -
Di, 28.09. 0:40 83% -
Di, 28.09. 0:30 82% 35 km
Di, 28.09. 0:20 82% -
Di, 28.09. 0:10 82% -
Di, 28.09. 0:00 83% 30 km
Mo, 27.09. 23:30 82% 35 km
Mo, 27.09. 23:00 81% 30 km
Mo, 27.09. 22:30 79% 30 km
Mo, 27.09. 22:00 81% 40 km
Ortszeit Niederschlagsmenge Niederschlagsart
Mo, 27.09. 20:00 0.0 l/m2 in 12 Std. -
Mo, 27.09. 14:00 0.0 l/m2 in 6 Std. -
Mo, 27.09. 8:00 22 l/m2 in 12 Std. Sprühregen
Mo, 27.09. 2:00 22 l/m2 in 6 Std. Regen
So, 26.09. 20:00 0.9 l/m2 in 12 Std. Regen
So, 26.09. 14:00 0.0 l/m2 in 6 Std. -
So, 26.09. 8:00 0.1 l/m2 in 12 Std. Regen
So, 26.09. 2:00 0.1 l/m2 in 6 Std. Regen
Ortszeit Niederschlagsmenge Niederschlagsart
Di, 28.09. 1:00 0.0 l/m2 in 1 Std. -
Di, 28.09. 0:50 keine Meldung -
Di, 28.09. 0:40 keine Meldung -
Di, 28.09. 0:30 0.0 l/m2 in 1 Std. -
Di, 28.09. 0:20 keine Meldung -
Di, 28.09. 0:10 keine Meldung -
Di, 28.09. 0:00 0.0 l/m2 in 1 Std. -
Mo, 27.09. 23:30 0.0 l/m2 in 1 Std. -
Mo, 27.09. 23:00 0.0 l/m2 in 1 Std. -
Mo, 27.09. 22:30 0.0 l/m2 in 1 Std. -
Mo, 27.09. 22:00 0.0 l/m2 in 1 Std. -
Ortszeit Stärke Spitze Richtung
km/h Bft. km/h Grad Sektor
Mo, 27.09. 20:00 9 2 15 270° W
Mo, 27.09. 14:00 - - - - -
Mo, 27.09. 8:00 11 2 25 270° W
Mo, 27.09. 2:00 18 3 36 230° SW
So, 26.09. 20:00 18 3 32 250° W
So, 26.09. 14:00 13 3 30 270° W
So, 26.09. 8:00 15 3 26 140° SO
So, 26.09. 2:00 14 3 25 260° W
Ortszeit Stärke Spitze Richtung
km/h Bft. km/h Grad Sektor
Di, 28.09. 1:00 18 3 29 240° SW
Di, 28.09. 0:50 18 3 - 240° SW
Di, 28.09. 0:40 14 3 - 240° SW
Di, 28.09. 0:30 14 3 22 250° W
Di, 28.09. 0:20 14 3 - 250° W
Di, 28.09. 0:10 14 3 - 250° W
Di, 28.09. 0:00 14 3 22 250° W
Mo, 27.09. 23:30 13 3 20 250° W
Mo, 27.09. 23:00 13 3 20 260° W
Mo, 27.09. 22:30 13 3 20 260° W
Mo, 27.09. 22:00 11 2 22 220° SW
Ortszeit Untergrenze Bedeckung Gattung
total tief tief mittel hoch
Mo, 27.09. 20:00 2700 m 7/8 7/8 - - -
Mo, 27.09. 14:00 2100 m 1/8 1/8 - - -
Mo, 27.09. 8:00 1440 m 7/8 7/8 - - -
Mo, 27.09. 2:00 390 m 6/8 6/8 - - -
So, 26.09. 20:00 60 m 7/8 7/8 - - -
So, 26.09. 14:00 690 m 7/8 7/8 - - -
So, 26.09. 8:00 2100 m 7/8 6/8 - - -
So, 26.09. 2:00 2700 m 8/8 7/8 - - -
Ortszeit Bedeckungsgrad in Achtel und Wolkenuntergrenze
Di, 28.09. 1:00 8(2700m)
Di, 28.09. 0:50 8(2700m)
Di, 28.09. 0:40 8(2700m)
Di, 28.09. 0:30 8(2700m)
Di, 28.09. 0:20 8(2700m)
Di, 28.09. 0:10 8(2700m)
Di, 28.09. 0:00 8(2700m)
Mo, 27.09. 23:30 8(2700m)
Mo, 27.09. 23:00 7(2700m) 8(3300m)
Mo, 27.09. 22:30 8(2700m)
Mo, 27.09. 22:00 8(2700m)
Ortszeit Stationsdruck (hPa) Tendenz (hPa in 3 Std.)
Mo, 27.09. 20:00 909 + 0,8
Mo, 27.09. 14:00 908 - 0,1
Mo, 27.09. 8:00 908 - 0,1
Mo, 27.09. 2:00 908 + 0,1
So, 26.09. 20:00 907 - 0,3
So, 26.09. 14:00 908 + 0,7
So, 26.09. 8:00 907 - 0,7
So, 26.09. 2:00 908 + 1,1
Ortszeit Stationsdruck (hPa) Tendenz (hPa in 3 Std.)
Di, 28.09. 1:00 910 + 0,9
Di, 28.09. 0:50 910 keine Meldung
Di, 28.09. 0:40 910 keine Meldung
Di, 28.09. 0:30 910 + 1,0
Di, 28.09. 0:20 910 keine Meldung
Di, 28.09. 0:10 910 keine Meldung
Di, 28.09. 0:00 910 + 1,1
Mo, 27.09. 23:30 910 + 1,3
Mo, 27.09. 23:00 910 + 1,2
Mo, 27.09. 22:30 910 + 1,2
Mo, 27.09. 22:00 909 + 0,9
Ortszeit Schneehöhe (cm)
Mo, 27.09. 20:00 0
Mo, 27.09. 14:00 0
Mo, 27.09. 8:00 0
Mo, 27.09. 2:00 0
So, 26.09. 20:00 0
So, 26.09. 14:00 0
So, 26.09. 8:00 0
So, 26.09. 2:00 0
Ortszeit Schneehöhe (cm)
Di, 28.09. 1:00 0
Di, 28.09. 0:50 0
Di, 28.09. 0:40 0
Di, 28.09. 0:30 0
Di, 28.09. 0:20 0
Di, 28.09. 0:10 0
Di, 28.09. 0:00 0
Mo, 27.09. 23:30 0
Mo, 27.09. 23:00 0
Mo, 27.09. 22:30 0
Mo, 27.09. 22:00 0
Link zu dieser Seite / Seite empfehlen

Das Wetter in ...